EPGDEPLL

Guest
Details From EPGD - LECH WALESA
To EPLL - LODZ LUBLINEK
Flight Number -
Tags generated
Created
Modified
Stats Distance 163 nm / 302 km
Max Altitude 19,200 ft / 5,852 m
Waypoints 3
Social Downloads 0
Likes 0
Share VATSIM

Download

Looking for another format? Having issues loading an existing format? Contact us
Advertisement - Login to hide

Notes

Basic altitude profile: - Ascent Rate: 2500ft/min - Ascent Speed: 250kts - Cruise Altitude: 35000ft - Cruise Speed: 420kts - Descent Rate: 1500ft/min - Descent Speed: 250kts

Route

EPGD BIBKA EPLL

ID Type Via Altitude Latitude Longitude Leg Dist Tot Dist Heading (true) Name
O EPGD APT - 0 ft / 0 m 54.37617˚ 18.47188˚ - 0 nm - LECH WALESA
BIBKA FIX - 19,200 ft / 5,852 m 53.19083˚ 18.95500˚ 73 nm 73 nm 166° / 167° -
O EPLL APT - 0 ft / 0 m 51.72008˚ 19.39533˚ 89 nm 163 nm 169° / 170° LODZ LUBLINEK

Altitude Profile

Advertisement - Login to hide

Weather


0- 5 10 15 20 25 30 35+ Temperature / ° C

Clouds and Precipitation
Forecast for 2018-05-24 18:00 UTC. Updated 4 hours ago

Ground ~20,000 ft ~40,000 ft Winds

EPGD

Details ICAO EPGD (GDN)
Name LECH WALESA
Region Poland
Timezone Europe/Warsaw (UTC+2.0)
Stats Elevation 489 ft / 149 m (AMSL)
Location 54.376167° 18.471884°
Runways 1
Magnetic Variation 5.511° E

METAR

EPGD 242130Z 36005KT 330V030 CAVOK 12/04 Q1025

Decode

TAF

TAF TAF EPGD 241730Z 2418/2518 03008KT CAVOK TEMPO 2515/2518 BKN030CB PROB40 TEMPO 2516/2518 VRB15G30KT 5000 TSRA BKN020CB

Decode

Departure Runways

ID Width Length Bearing (true) Bearing (mag) Surface Threshold Offset Overrun Length
11 148 ft / 45 m 9,158 ft / 2,791 m 112.96° 107.45° Asphalt 0 ft / 0 m 0 ft / 0 m
29 148 ft / 45 m 9,158 ft / 2,791 m 293.00° 287.49° Asphalt 0 ft / 0 m 0 ft / 0 m

EPLL

Details ICAO EPLL (LCJ)
Name LODZ LUBLINEK
Region Poland
Timezone Europe/Warsaw (UTC+2.0)
Stats Elevation 606 ft / 185 m (AMSL)
Location 51.720081° 19.395332°
Runways 2
Magnetic Variation 5.387° E

METAR

EPLL 242130Z 03003KT 360V080 CAVOK 18/10 Q1022

Decode

TAF

TAF EPLL 241730Z 2418/2518 06008KT CAVOK TEMPO 2510/2512 SCT030CB PROB40 TEMPO 2512/2518 VRB15G30KT 3000 TSRA

Decode

Destination Runways

ID Width Length Bearing (true) Bearing (mag) Surface Threshold Offset Overrun Length
07L 148 ft / 45 m 8,184 ft / 2,495 m 70.76° 65.37° Concrete 0 ft / 0 m 0 ft / 0 m
07R 574 ft / 175 m 2,299 ft / 701 m 70.78° 65.39° Grass 0 ft / 0 m 0 ft / 0 m
25L 574 ft / 175 m 2,299 ft / 701 m 250.78° 245.39° Grass 0 ft / 0 m 0 ft / 0 m
25R 148 ft / 45 m 8,184 ft / 2,495 m 250.79° 245.40° Concrete 0 ft / 0 m 0 ft / 0 m

Approach Navaids

Runway Type Ident Frequency Range Bearing (true) Bearing (mag) Slope Elevation
25R Localiser ILOD 110.50 MHz 18 nm / 33 km 250.60° 245.21° - 604 ft / 184 m (AMSL)
25R Glidescope ILOD 110.50 MHz 10 nm / 19 km 250.60° 245.21° 3.00° 604 ft / 184 m (AMSL)

Popular Alternatives